Time;durP1;ratioP1;P1;durP2;ratioP2;P2;SDS_P1;SDS_P2;PMS_P1;PMS_P2;Temp;Humidity;BMP_temperature;BMP_pressure;BME280_temperature;BME280_humidity;BME280_pressure;Samples;Min_cycle;Max_cycle;Signal;HPM_P1;HPM_P2
2023/06/03 00:01:24;;;;;;;4.27;1.67;;;8.10;99.90;;;;;;5055574;28;20218;-85
2023/06/03 00:03:50;;;;;;;4.50;1.83;;;8.10;99.90;;;;;;5072460;28;20186;-85
2023/06/03 00:06:16;;;;;;;4.47;1.75;;;8.10;99.90;;;;;;5073351;28;20183;-85
2023/06/03 00:08:44;;;;;;;3.13;1.83;;;8.00;99.90;;;;;;5072673;28;20183;-85
2023/06/03 00:11:11;;;;;;;3.22;1.60;;;8.00;99.90;;;;;;5074071;28;20240;-85
2023/06/03 00:13:37;;;;;;;2.63;1.33;;;8.00;99.90;;;;;;5072289;28;20768;-86
2023/06/03 00:16:03;;;;;;;2.53;1.88;;;7.90;99.90;;;;;;5073687;28;20198;-85
2023/06/03 00:18:31;;;;;;;3.20;1.77;;;7.90;99.90;;;;;;5073854;28;20707;-85
2023/06/03 00:20:56;;;;;;;6.68;1.63;;;7.80;99.90;;;;;;5072372;28;20773;-84
2023/06/03 00:23:22;;;;;;;3.87;1.80;;;7.80;99.90;;;;;;5073795;28;20258;-85
2023/06/03 00:25:48;;;;;;;4.27;2.20;;;7.80;99.90;;;;;;5072541;28;20187;-85
2023/06/03 00:28:15;;;;;;;3.47;1.80;;;7.70;99.90;;;;;;5071865;28;20179;-85
2023/06/03 00:30:40;;;;;;;4.40;1.80;;;7.70;99.90;;;;;;5072028;28;20597;-85
2023/06/03 00:33:06;;;;;;;3.33;2.10;;;7.70;99.90;;;;;;5073297;28;20214;-85
2023/06/03 00:35:33;;;;;;;3.67;1.60;;;7.70;99.90;;;;;;5072259;28;20183;-86
2023/06/03 00:37:59;;;;;;;8.23;1.80;;;7.60;99.90;;;;;;5073222;28;20214;-84
2023/06/03 00:40:24;;;;;;;3.57;1.97;;;7.60;99.90;;;;;;5072356;28;20179;-86
2023/06/03 00:42:50;;;;;;;2.87;1.77;;;;;;;;;;5072043;28;20209;-85
2023/06/03 00:45:16;;;;;;;4.77;1.63;;;7.50;99.90;;;;;;5055110;28;20598;-85
2023/06/03 00:47:43;;;;;;;2.17;1.70;;;7.50;99.90;;;;;;5073953;28;20191;-86
2023/06/03 00:50:11;;;;;;;3.92;1.80;;;7.50;99.90;;;;;;5071679;28;20185;-85
2023/06/03 00:52:38;;;;;;;3.50;1.73;;;7.40;99.90;;;;;;5072202;28;20215;-85
2023/06/03 00:55:04;;;;;;;2.10;1.70;;;7.40;99.90;;;;;;5055015;28;20647;-86
2023/06/03 00:57:30;;;;;;;1.83;1.47;;;7.40;99.90;;;;;;5073153;28;20203;-85
2023/06/03 00:59:56;;;;;;;2.10;1.50;;;7.40;99.90;;;;;;5071946;28;20187;-84
2023/06/03 01:02:23;;;;;;;2.70;1.77;;;7.40;99.90;;;;;;5074240;28;20232;-85
2023/06/03 01:04:50;;;;;;;4.07;1.20;;;7.40;99.90;;;;;;5077597;28;20292;-86
2023/06/03 01:07:18;;;;;;;2.13;1.50;;;7.40;99.90;;;;;;5076926;28;20183;-85
2023/06/03 01:09:56;;;;;;;3.50;1.40;;;7.40;99.90;;;;;;5076482;28;20258;-85
2023/06/03 01:12:46;;;;;;;3.50;2.07;;;7.40;99.90;;;;;;5073536;28;20183;-85
2023/06/03 01:15:20;;;;;;;1.93;1.50;;;7.60;99.90;;;;;;5075340;28;20179;-85
2023/06/03 01:17:49;;;;;;;6.20;1.30;;;7.70;99.90;;;;;;5072685;28;20356;-85
2023/06/03 01:20:16;;;;;;;1.73;1.33;;;7.40;99.90;;;;;;5071228;28;20183;-85
2023/06/03 01:22:44;;;;;;;6.83;1.60;;;7.40;99.90;;;;;;5072886;28;20658;-85
2023/06/03 01:25:16;;;;;;;1.73;1.20;;;7.30;99.90;;;;;;5073804;28;20180;-84
2023/06/03 01:27:44;;;;;;;1.60;1.17;;;7.30;99.90;;;;;;5076625;28;20636;-85
2023/06/03 01:30:13;;;;;;;2.57;1.13;;;7.00;99.90;;;;;;5076162;28;20171;-85
2023/06/03 01:32:43;;;;;;;4.83;1.67;;;7.40;99.90;;;;;;5076090;28;20183;-85
2023/06/03 01:35:11;;;;;;;5.50;1.70;;;7.30;99.90;;;;;;5075929;28;20176;-85
2023/06/03 01:37:37;;;;;;;1.43;1.03;;;7.30;99.90;;;;;;5076173;28;20664;-84
2023/06/03 01:40:05;;;;;;;3.10;1.47;;;7.30;99.90;;;;;;5076277;28;20229;-84
2023/06/03 01:42:31;;;;;;;1.30;1.20;;;7.30;99.90;;;;;;5074753;28;20180;-85
2023/06/03 01:44:58;;;;;;;1.57;1.10;;;7.30;99.90;;;;;;5058103;28;20266;-85
2023/06/03 01:47:23;;;;;;;1.43;1.10;;;10.20;99.90;;;;;;5075777;28;20202;-85
2023/06/03 01:49:49;;;;;;;3.30;1.30;;;7.30;99.90;;;;;;5074697;28;20636;-85
2023/06/03 01:52:15;;;;;;;2.23;1.13;;;7.30;99.90;;;;;;5075743;28;20183;-85
2023/06/03 01:54:41;;;;;;;1.73;1.30;;;7.30;99.90;;;;;;5074774;28;20509;-85
2023/06/03 01:57:07;;;;;;;3.27;1.10;;;7.20;99.90;;;;;;5074656;28;20581;-85
2023/06/03 01:59:34;;;;;;;1.50;1.20;;;7.20;99.90;;;;;;5058198;28;20198;-85
2023/06/03 02:02:00;;;;;;;2.67;1.30;;;7.20;99.90;;;;;;5074745;28;20530;-85
2023/06/03 02:04:26;;;;;;;1.90;1.37;;;7.20;99.90;;;;;;5075805;28;20186;-85
2023/06/03 02:06:55;;;;;;;1.63;0.80;;;7.20;99.90;;;;;;5075614;28;20176;-85
2023/06/03 02:09:21;;;;;;;5.27;1.10;;;7.10;99.90;;;;;;5074303;28;20190;-84
2023/06/03 02:11:50;;;;;;;2.73;1.20;;;7.10;99.90;;;;;;5074529;28;20650;-85
2023/06/03 02:14:16;;;;;;;1.43;1.20;;;7.00;99.90;;;;;;5075406;28;20179;-85
2023/06/03 02:16:42;;;;;;;2.67;1.27;;;7.00;99.90;;;;;;5075552;28;20726;-84
2023/06/03 02:19:20;;;;;;;2.63;1.30;;;7.00;99.90;;;;;;5075415;28;20335;-85
2023/06/03 02:21:46;;;;;;;1.50;1.03;;;;;;;;;;5075677;28;20171;-84
2023/06/03 02:24:14;;;;;;;1.43;1.30;;;7.00;99.90;;;;;;5073961;28;20183;-85
2023/06/03 02:26:49;;;;;;;2.47;1.30;;;6.90;99.90;;;;;;5075441;28;20180;-85
2023/06/03 02:29:16;;;;;;;6.30;1.40;;;6.90;99.90;;;;;;5073692;28;20678;-85
2023/06/03 02:31:42;;;;;;;2.60;1.57;;;6.90;99.90;;;;;;5074869;28;20179;-85
2023/06/03 02:34:08;;;;;;;1.17;1.07;;;6.90;99.90;;;;;;5073922;28;20244;-85
2023/06/03 02:36:33;;;;;;;1.47;1.07;;;6.90;99.90;;;;;;5073593;28;20608;-85
2023/06/03 02:38:59;;;;;;;2.77;1.13;;;6.90;99.90;;;;;;5074667;28;20211;-85
2023/06/03 02:41:25;;;;;;;4.70;1.67;;;;;;;;;;5073620;28;20245;-85
2023/06/03 02:43:51;;;;;;;3.33;1.13;;;;;;;;;;5074956;28;20233;-85
2023/06/03 02:46:17;;;;;;;0.83;0.77;;;6.90;99.90;;;;;;5074680;28;20180;-84
2023/06/03 02:48:42;;;;;;;0.87;0.83;;;6.90;99.90;;;;;;5056917;28;20643;-85
2023/06/03 02:51:08;;;;;;;3.23;1.10;;;6.90;99.90;;;;;;5073769;28;20186;-85
2023/06/03 02:53:33;;;;;;;0.97;0.93;;;6.90;99.90;;;;;;5074532;28;20171;-85
2023/06/03 02:55:59;;;;;;;4.60;1.30;;;7.00;99.90;;;;;;5074498;28;20186;-85
2023/06/03 02:58:25;;;;;;;1.23;0.87;;;7.00;99.90;;;;;;5074116;28;20213;-84
2023/06/03 03:00:50;;;;;;;0.97;0.87;;;7.00;99.90;;;;;;5074420;28;20262;-85
2023/06/03 03:03:16;;;;;;;4.53;1.07;;;7.00;99.90;;;;;;5056525;28;20271;-85
2023/06/03 03:05:42;;;;;;;1.43;1.20;;;7.00;99.90;;;;;;5074530;28;20289;-84
2023/06/03 03:08:08;;;;;;;1.77;1.30;;;7.00;99.90;;;;;;5091120;28;20191;-87
2023/06/03 03:10:34;;;;;;;2.10;1.10;;;7.10;99.90;;;;;;5088569;28;20190;-85
2023/06/03 03:13:00;;;;;;;1.00;0.93;;;7.30;99.90;;;;;;5090148;28;20179;-86
2023/06/03 03:15:25;;;;;;;4.53;0.93;;;7.10;99.90;;;;;;5061060;28;20198;-85
2023/06/03 03:17:51;;;;;;;1.60;1.37;;;7.20;99.90;;;;;;5075466;28;20699;-84
2023/06/03 03:20:17;;;;;;;4.83;1.00;;;7.20;99.90;;;;;;5056911;28;20237;-85
2023/06/03 03:22:46;;;;;;;2.30;1.20;;;7.20;99.90;;;;;;5074352;28;20639;-84
2023/06/03 03:25:12;;;;;;;3.07;1.30;;;7.30;99.90;;;;;;5074096;28;20179;-85
2023/06/03 03:27:38;;;;;;;1.93;0.90;;;;;;;;;;5072556;28;20197;-85
2023/06/03 03:30:05;;;;;;;2.73;0.83;;;7.40;99.90;;;;;;5074047;28;20224;-85
2023/06/03 03:32:31;;;;;;;0.90;0.90;;;;;;;;;;5072634;28;20278;-84
2023/06/03 03:35:20;;;;;;;1.43;1.20;;;7.40;99.90;;;;;;5072586;28;20188;-85
2023/06/03 03:37:46;;;;;;;1.57;1.00;;;7.40;99.90;;;;;;5072771;28;20268;-85
2023/06/03 03:40:20;;;;;;;4.90;1.00;;;7.20;99.90;;;;;;5073713;28;20188;-84
2023/06/03 03:42:50;;;;;;;3.17;1.13;;;7.50;99.90;;;;;;5073627;28;20688;-84
2023/06/03 03:45:18;;;;;;;1.03;1.00;;;7.50;99.90;;;;;;5073311;28;20185;-85
2023/06/03 03:47:47;;;;;;;2.23;1.00;;;7.50;99.90;;;;;;5074983;28;20247;-84
2023/06/03 03:50:35;;;;;;;4.50;1.57;;;7.50;99.90;;;;;;5075824;28;20183;-85
2023/06/03 03:53:04;;;;;;;1.50;1.40;;;7.50;99.90;;;;;;5081519;28;20167;-85
2023/06/03 03:55:30;;;;;;;1.40;0.90;;;7.50;99.90;;;;;;5082847;28;20184;-85
2023/06/03 03:57:56;;;;;;;4.97;1.27;;;7.50;99.90;;;;;;5082921;28;20250;-86
2023/06/03 04:00:22;;;;;;;2.03;1.37;;;7.50;99.90;;;;;;5059943;28;20187;-86
2023/06/03 04:02:53;;;;;;;8.77;1.30;;;7.60;99.90;;;;;;5076986;28;20175;-86
2023/06/03 04:05:22;;;;;;;2.93;1.37;;;7.60;99.90;;;;;;5076071;28;20265;-86
2023/06/03 04:07:48;;;;;;;1.80;0.90;;;7.60;99.90;;;;;;5056181;28;20519;-86
2023/06/03 04:10:15;;;;;;;3.13;1.27;;;7.70;99.90;;;;;;5073304;28;20174;-86
2023/06/03 04:12:41;;;;;;;1.40;1.07;;;7.80;99.90;;;;;;5073224;28;20570;-85
2023/06/03 04:15:07;;;;;;;4.53;1.23;;;7.70;99.90;;;;;;5072168;28;20266;-85
2023/06/03 04:17:37;;;;;;;1.17;1.00;;;7.80;99.90;;;;;;5072868;28;20231;-85
2023/06/03 04:20:09;;;;;;;3.03;1.10;;;7.80;99.90;;;;;;5073127;28;20175;-85
2023/06/03 04:22:35;;;;;;;4.63;1.33;;;7.80;99.90;;;;;;5073223;28;20643;-85
2023/06/03 04:25:07;;;;;;;1.33;1.03;;;7.90;99.90;;;;;;5073330;28;20179;-85
2023/06/03 04:27:32;;;;;;;1.80;1.10;;;8.00;99.90;;;;;;5073262;28;20175;-85
2023/06/03 04:29:58;;;;;;;1.10;0.80;;;8.10;99.90;;;;;;5073192;28;20180;-85
2023/06/03 04:32:24;;;;;;;5.32;1.33;;;8.50;99.90;;;;;;5071982;28;20698;-85
2023/06/03 04:34:52;;;;;;;2.87;1.33;;;8.30;99.90;;;;;;5073008;28;20183;-86
2023/06/03 04:37:18;;;;;;;1.87;1.03;;;8.40;99.90;;;;;;5070245;28;20186;-85
2023/06/03 04:39:44;;;;;;;7.70;2.20;;;8.30;99.90;;;;;;5072530;28;20183;-85
2023/06/03 04:42:12;;;;;;;4.97;1.30;;;8.40;99.90;;;;;;5071715;28;20270;-85
2023/06/03 04:44:39;;;;;;;3.60;1.60;;;8.50;99.90;;;;;;5071102;28;20175;-85
2023/06/03 04:47:11;;;;;;;1.23;1.00;;;8.60;99.90;;;;;;5055049;28;20179;-85
2023/06/03 04:49:40;;;;;;;1.60;1.00;;;8.60;99.90;;;;;;5088465;28;20179;-87
2023/06/03 04:52:10;;;;;;;2.37;1.17;;;8.80;99.90;;;;;;5092252;28;20178;-86
2023/06/03 04:54:37;;;;;;;0.70;0.70;;;8.90;99.90;;;;;;5091519;28;20327;-86
2023/06/03 04:57:03;;;;;;;2.05;0.98;;;9.10;99.90;;;;;;5092828;28;20178;-86
2023/06/03 04:59:29;;;;;;;0.95;0.90;;;9.20;99.90;;;;;;5093280;28;20554;-86
2023/06/03 05:01:54;;;;;;;1.70;0.80;;;9.10;99.90;;;;;;5096849;28;20178;-85
2023/06/03 05:04:22;;;;;;;2.63;1.07;;;9.20;99.90;;;;;;5097178;28;20261;-86
2023/06/03 05:06:51;;;;;;;3.22;1.42;;;9.30;99.90;;;;;;5095593;28;20635;-85
2023/06/03 05:09:17;;;;;;;1.48;1.38;;;9.40;99.90;;;;;;5096891;28;20175;-87
2023/06/03 05:11:44;;;;;;;3.42;1.30;;;9.60;99.90;;;;;;5095138;28;20540;-86
2023/06/03 05:14:09;;;;;;;0.75;0.75;;;9.70;99.90;;;;;;5095384;28;20182;-87
2023/06/03 05:16:36;;;;;;;5.10;1.23;;;;;;;;;;5096180;28;20174;-86
2023/06/03 05:19:01;;;;;;;2.80;1.17;;;9.80;99.90;;;;;;5093866;28;20230;-85
2023/06/03 05:21:27;;;;;;;2.58;1.20;;;9.90;99.90;;;;;;5095558;28;20183;-85
2023/06/03 05:23:53;;;;;;;2.72;1.40;;;9.80;99.90;;;;;;5095401;28;20175;-88
2023/06/03 05:26:18;;;;;;;2.08;1.10;;;9.90;99.90;;;;;;5076846;28;20695;-86
2023/06/03 05:28:44;;;;;;;2.25;1.05;;;9.80;99.90;;;;;;5074648;28;20214;-85
2023/06/03 05:31:10;;;;;;;1.45;1.05;;;9.80;99.90;;;;;;5093809;28;20646;-86
2023/06/03 05:33:36;;;;;;;1.70;1.10;;;9.90;99.90;;;;;;5092676;28;20191;-86
2023/06/03 05:36:02;;;;;;;1.52;0.90;;;10.10;99.90;;;;;;5093053;28;20631;-87
2023/06/03 05:38:27;;;;;;;3.47;1.10;;;10.30;99.90;;;;;;5093670;28;20206;-86
2023/06/03 05:40:54;;;;;;;1.02;0.93;;;;;;;;;;5094001;28;20179;-88
2023/06/03 05:43:20;;;;;;;1.05;0.88;;;10.60;99.90;;;;;;5076738;28;20186;-86
2023/06/03 05:45:46;;;;;;;0.95;0.88;;;10.70;99.90;;;;;;5093411;28;20336;-88
2023/06/03 05:48:12;;;;;;;1.38;1.00;;;10.90;99.90;;;;;;5093645;28;20187;-87
2023/06/03 05:50:47;;;;;;;6.13;1.05;;;11.20;99.90;;;;;;5093738;28;20181;-87
2023/06/03 05:53:12;;;;;;;1.02;0.93;;;11.10;99.90;;;;;;5093976;28;20192;-87
2023/06/03 05:55:38;;;;;;;1.10;1.00;;;11.10;99.90;;;;;;5093890;28;20643;-88
2023/06/03 05:58:03;;;;;;;3.00;0.93;;;11.20;99.90;;;;;;5076231;28;20220;-87
2023/06/03 06:00:29;;;;;;;2.75;1.08;;;11.30;99.90;;;;;;5093586;28;20174;-90
2023/06/03 06:02:55;;;;;;;1.25;0.80;;;11.40;99.90;;;;;;5094774;28;20274;-88
2023/06/03 06:05:21;;;;;;;1.90;1.52;;;11.40;99.90;;;;;;5076978;28;20554;-86
2023/06/03 06:07:47;;;;;;;1.42;1.17;;;11.40;99.90;;;;;;5093521;28;20192;-89
2023/06/03 06:10:12;;;;;;;1.08;0.90;;;11.40;99.90;;;;;;5101051;28;20174;-89
2023/06/03 06:12:38;;;;;;;1.92;1.00;;;11.40;99.90;;;;;;5105022;28;20633;-89
2023/06/03 06:15:04;;;;;;;1.23;0.80;;;11.40;99.90;;;;;;5104117;28;20646;-88
2023/06/03 06:17:30;;;;;;;3.10;0.90;;;11.50;99.90;;;;;;5101480;28;20231;-88
2023/06/03 06:19:56;;;;;;;1.92;0.98;;;11.60;99.90;;;;;;5104243;28;20181;-89
2023/06/03 06:22:21;;;;;;;1.80;0.93;;;11.70;99.90;;;;;;5086980;28;20272;-92
2023/06/03 06:24:47;;;;;;;2.28;0.90;;;11.90;99.90;;;;;;5093375;28;20206;-90
2023/06/03 06:27:13;;;;;;;2.58;1.25;;;;;;;;;;5102126;28;20205;-89
2023/06/03 06:29:39;;;;;;;3.92;1.17;;;11.70;97.20;;;;;;5099417;28;20178;-91
2023/06/03 06:32:05;;;;;;;2.75;1.17;;;12.10;97.30;;;;;;5114930;28;20178;-90
2023/06/03 06:34:34;;;;;;;1.67;0.82;;;12.10;96.70;;;;;;5117978;28;20181;-88
2023/06/03 06:37:00;;;;;;;2.28;0.80;;;12.20;96.20;;;;;;5133332;28;20180;-90
2023/06/03 06:39:41;;;;;;;0.82;0.70;;;12.30;94.80;;;;;;5131011;28;20226;-89
2023/06/03 06:42:17;;;;;;;0.82;0.80;;;12.30;93.50;;;;;;5130493;28;20180;-88
2023/06/03 06:44:50;;;;;;;2.33;0.90;;;12.50;95.00;;;;;;5131509;28;20345;-88
2023/06/03 06:47:23;;;;;;;1.27;0.70;;;12.60;93.40;;;;;;5115032;28;20692;-90
2023/06/03 06:49:50;;;;;;;1.92;1.02;;;12.80;97.00;;;;;;5116047;28;20198;-90
2023/06/03 06:52:16;;;;;;;1.75;0.98;;;12.70;93.50;;;;;;5102889;28;20175;-93
2023/06/03 06:54:42;;;;;;;0.85;0.85;;;12.70;92.40;;;;;;5095255;28;20206;-93
2023/06/03 06:57:08;;;;;;;2.28;1.10;;;12.60;92.00;;;;;;5077723;28;20220;-92
2023/06/03 06:59:34;;;;;;;2.70;1.20;;;12.50;92.80;;;;;;5093944;28;20186;-90
2023/06/03 07:02:00;;;;;;;1.33;1.02;;;12.50;92.70;;;;;;5076428;28;20239;-91
2023/06/03 07:04:25;;;;;;;1.38;1.02;;;12.70;93.50;;;;;;5093178;28;20639;-90
2023/06/03 07:06:52;;;;;;;4.65;0.88;;;12.90;93.70;;;;;;5095079;28;20199;-92
2023/06/03 07:09:18;;;;;;;0.93;0.82;;;13.00;92.30;;;;;;5095752;28;20190;-94
2023/06/03 07:11:44;;;;;;;5.25;1.00;;;13.10;91.80;;;;;;5095600;28;20676;-93
2023/06/03 07:14:10;;;;;;;0.73;0.73;;;13.30;91.50;;;;;;5093172;28;20213;-91
2023/06/03 07:16:36;;;;;;;0.70;0.70;;;13.40;90.60;;;;;;5093428;28;20202;-91
2023/06/03 07:19:03;;;;;;;1.33;0.80;;;13.40;90.50;;;;;;5090804;28;20276;-92
2023/06/03 07:21:29;;;;;;;3.30;1.02;;;13.30;88.80;;;;;;5087194;28;20879;-90
2023/06/03 07:23:55;;;;;;;1.55;0.82;;;13.30;90.60;;;;;;5056930;28;20278;-91
2023/06/03 07:26:31;;;;;;;0.80;0.75;;;13.20;89.80;;;;;;5074658;28;20202;-90
2023/06/03 07:28:57;;;;;;;0.50;0.50;;;13.20;90.00;;;;;;5091548;28;20335;-93
2023/06/03 07:31:24;;;;;;;1.20;0.70;;;13.30;89.40;;;;;;5076167;28;20706;-94
2023/06/03 07:33:54;;;;;;;0.85;0.63;;;13.30;87.10;;;;;;5093171;28;20251;-91
2023/06/03 07:36:22;;;;;;;1.65;1.10;;;13.50;90.00;;;;;;5094327;28;20179;-93
2023/06/03 07:39:02;;;;;;;1.40;0.80;;;13.70;87.60;;;;;;5076412;28;20305;-94
2023/06/03 07:41:44;;;;;;;1.02;0.80;;;13.90;87.20;;;;;;5076795;28;20174;-94
2023/06/03 07:44:11;;;;;;;3.85;0.88;;;13.70;83.80;;;;;;5091948;28;20166;-92
2023/06/03 07:46:46;;;;;;;1.25;0.70;;;13.70;82.80;;;;;;5092512;28;20174;-94
2023/06/03 07:49:16;;;;;;;0.68;0.50;;;13.70;83.80;;;;;;5093674;28;20642;-94
2023/06/03 07:51:45;;;;;;;0.60;0.60;;;13.70;82.60;;;;;;5076739;28;20174;-93
2023/06/03 07:54:10;;;;;;;1.10;0.73;;;13.70;79.80;;;;;;5092775;28;20261;-91
2023/06/03 07:56:36;;;;;;;1.80;0.57;;;13.30;79.40;;;;;;5094483;28;20208;-92
2023/06/03 07:59:04;;;;;;;1.65;0.80;;;13.20;81.90;;;;;;5094091;28;21007;-94
2023/06/03 08:01:30;;;;;;;1.73;0.82;;;13.30;85.90;;;;;;5094188;28;20618;-93
2023/06/03 08:03:56;;;;;;;0.73;0.65;;;13.60;80.80;;;;;;5076114;28;20257;-94
2023/06/03 08:06:27;;;;;;;1.10;0.75;;;13.60;81.90;;;;;;5094050;28;20189;-94
2023/06/03 08:08:56;;;;;;;1.73;0.77;;;13.60;80.00;;;;;;5092198;28;20190;-94
2023/06/03 08:11:22;;;;;;;2.70;0.40;;;13.60;80.00;;;;;;5092500;28;20193;-94
2023/06/03 08:13:49;;;;;;;1.17;0.82;;;13.80;71.60;;;;;;5075965;28;20289;-91
2023/06/03 08:16:18;;;;;;;5.05;0.82;;;14.20;76.50;;;;;;5075951;28;20174;-92
2023/06/03 08:18:47;;;;;;;7.03;0.80;;;14.60;76.80;;;;;;5094080;28;20230;-93
2023/06/03 08:21:13;;;;;;;1.20;1.10;;;14.70;73.30;;;;;;5092474;28;20597;-93
2023/06/03 08:23:39;;;;;;;0.77;0.60;;;15.00;73.50;;;;;;5092599;28;20189;-92
2023/06/03 08:26:08;;;;;;;0.70;0.63;;;15.20;69.70;;;;;;5093407;28;20171;-95
2023/06/03 08:28:37;;;;;;;1.50;0.85;;;15.10;69.60;;;;;;5093325;28;20299;-93
2023/06/03 08:31:03;;;;;;;1.20;0.65;;;15.50;71.40;;;;;;5092316;28;20187;-94
2023/06/03 08:33:28;;;;;;;0.90;0.73;;;15.60;68.60;;;;;;5076385;28;20296;-91
2023/06/03 08:35:54;;;;;;;0.60;0.60;;;15.60;65.50;;;;;;5086836;28;20186;-90
2023/06/03 08:38:20;;;;;;;0.88;0.82;;;15.50;64.60;;;;;;5077052;28;20260;-93
2023/06/03 08:40:48;;;;;;;0.98;0.60;;;15.60;65.50;;;;;;5112418;28;20182;-92
2023/06/03 08:43:14;;;;;;;1.75;0.80;;;15.80;65.90;;;;;;5076305;28;20182;-93
2023/06/03 08:46:06;;;;;;;0.88;0.70;;;15.70;61.00;;;;;;5076230;28;20186;-91
2023/06/03 08:48:37;;;;;;;0.93;0.70;;;15.30;61.70;;;;;;5080110;28;20179;-93
2023/06/03 08:51:05;;;;;;;1.17;1.08;;;15.30;63.20;;;;;;5076440;28;20584;-93
2023/06/03 08:53:49;;;;;;;1.00;0.80;;;15.50;66.60;;;;;;5112797;28;20181;-91
2023/06/03 08:56:20;;;;;;;0.88;0.80;;;15.60;65.20;;;;;;5082236;28;20174;-96
2023/06/03 08:59:01;;;;;;;1.60;0.73;;;15.50;64.30;;;;;;5082383;28;20219;-92
2023/06/03 09:01:35;;;;;;;1.30;0.63;;;15.30;64.30;;;;;;5081301;28;20171;-92
2023/06/03 09:04:02;;;;;;;1.48;0.95;;;14.70;64.70;;;;;;5077403;28;20171;-93
2023/06/03 09:06:27;;;;;;;0.68;0.60;;;14.50;66.50;;;;;;5078174;28;20228;-91
2023/06/03 09:08:53;;;;;;;1.27;0.80;;;14.40;65.80;;;;;;5081352;28;20187;-95
2023/06/03 09:11:20;;;;;;;0.82;0.73;;;14.20;66.60;;;;;;5113501;28;20175;-95
2023/06/03 09:13:46;;;;;;;1.85;0.80;;;14.20;67.80;;;;;;5081561;28;20207;-92
2023/06/03 09:16:13;;;;;;;1.42;0.82;;;14.40;70.50;;;;;;5081490;28;20591;-94
2023/06/03 09:18:39;;;;;;;1.73;1.00;;;14.80;69.70;;;;;;5082629;28;20245;-94
2023/06/03 09:21:09;;;;;;;0.85;0.70;;;15.30;64.70;;;;;;5098175;28;20175;-94
2023/06/03 09:23:37;;;;;;;4.75;0.63;;;15.50;64.60;;;;;;5079766;28;20198;-94
2023/06/03 09:26:03;;;;;;;1.23;0.60;;;15.90;63.10;;;;;;5099251;28;20171;-93
2023/06/03 09:28:30;;;;;;;3.15;0.68;;;15.90;58.30;;;;;;5097701;28;20670;-95
2023/06/03 09:30:56;;;;;;;0.82;0.65;;;16.10;58.40;;;;;;5115584;28;20175;-94
2023/06/03 09:33:22;;;;;;;1.42;0.63;;;16.40;58.60;;;;;;5084163;28;20193;-94
2023/06/03 09:36:07;;;;;;;1.17;0.90;;;16.60;58.50;;;;;;5113624;28;20196;-93
2023/06/03 09:38:53;;;;;;;4.03;0.75;;;16.80;59.60;;;;;;5081292;28;20676;-92
2023/06/03 09:41:22;;;;;;;0.82;0.60;;;16.60;58.50;;;;;;5080721;28;20175;-92
2023/06/03 09:44:02;;;;;;;1.35;0.73;;;16.40;58.10;;;;;;5082163;28;20654;-92
2023/06/03 09:46:33;;;;;;;7.38;0.80;;;16.40;56.50;;;;;;5077596;28;20207;-91
2023/06/03 09:49:11;;;;;;;1.13;0.70;;;16.40;57.90;;;;;;5080016;28;20190;-90
2023/06/03 09:51:49;;;;;;;1.90;0.65;;;16.60;59.90;;;;;;5077755;28;20172;-92
2023/06/03 09:54:22;;;;;;;0.98;0.70;;;16.60;58.10;;;;;;5079772;28;20183;-93
2023/06/03 09:56:49;;;;;;;2.47;0.75;;;16.30;58.50;;;;;;5093142;28;20187;-91
2023/06/03 09:59:16;;;;;;;2.45;1.00;;;16.20;58.10;;;;;;5093828;28;20223;-92
2023/06/03 10:01:45;;;;;;;3.15;0.70;;;16.00;58.90;;;;;;5097687;28;20182;-94
2023/06/03 10:04:12;;;;;;;3.88;0.93;;;16.00;59.00;;;;;;5078466;28;20595;-91
2023/06/03 10:06:38;;;;;;;3.17;0.90;;;16.30;59.00;;;;;;5110938;28;20183;-87
2023/06/03 10:09:22;;;;;;;5.85;1.27;;;16.50;57.90;;;;;;5077583;28;20190;-88
2023/06/03 10:11:50;;;;;;;0.50;0.50;;;16.50;60.10;;;;;;5077699;28;20182;-88
2023/06/03 10:14:22;;;;;;;0.88;0.68;;;16.50;56.30;;;;;;5079811;28;20179;-88
2023/06/03 10:17:08;;;;;;;2.00;1.10;;;16.20;59.10;;;;;;5078857;28;20236;-86
2023/06/03 10:19:41;;;;;;;0.60;0.60;;;16.50;57.10;;;;;;5084627;28;20206;-89
2023/06/03 10:22:12;;;;;;;4.35;0.70;;;16.90;56.40;;;;;;5118806;28;20190;-89
2023/06/03 10:24:42;;;;;;;2.50;0.60;;;16.80;58.40;;;;;;5086197;28;20173;-88
2023/06/03 10:27:09;;;;;;;4.50;1.05;;;17.00;55.50;;;;;;5077584;28;20195;-88
2023/06/03 10:29:35;;;;;;;1.52;0.95;;;17.00;57.00;;;;;;5076272;28;20178;-90
2023/06/03 10:32:02;;;;;;;0.82;0.63;;;17.10;58.10;;;;;;5109621;28;20232;-89
2023/06/03 10:34:29;;;;;;;1.65;0.70;;;16.60;71.60;;;;;;5075835;28;20184;-88
2023/06/03 10:36:57;;;;;;;1.48;0.85;;;16.40;57.30;;;;;;5092603;28;20182;-90
2023/06/03 10:39:27;;;;;;;3.22;0.82;;;16.30;56.90;;;;;;5108459;28;20234;-90
2023/06/03 10:42:03;;;;;;;1.20;0.60;;;16.30;55.10;;;;;;5099391;28;20688;-90
2023/06/03 10:44:31;;;;;;;2.20;0.90;;;16.50;55.50;;;;;;5105230;28;20173;-89
2023/06/03 10:47:08;;;;;;;1.10;0.60;;;16.80;53.30;;;;;;5111804;28;20178;-89
2023/06/03 10:49:42;;;;;;;0.57;0.57;;;16.80;53.80;;;;;;5116184;28;20182;-90
2023/06/03 10:52:08;;;;;;;0.50;0.50;;;17.10;53.90;;;;;;5117205;28;20177;-92
2023/06/03 10:55:27;;;;;;;1.83;0.70;;;17.40;55.00;;;;;;5115447;28;20181;-90
2023/06/03 10:58:03;;;;;;;4.28;0.82;;;17.90;52.60;;;;;;5077459;28;20305;-88
2023/06/03 11:00:52;;;;;;;1.05;0.80;;;18.30;52.00;;;;;;5115233;28;20193;-89
2023/06/03 11:03:18;;;;;;;1.67;0.85;;;18.20;53.80;;;;;;5115914;28;20268;-90
2023/06/03 11:05:47;;;;;;;1.65;0.80;;;18.40;54.70;;;;;;5098968;28;20638;-87
2023/06/03 11:08:13;;;;;;;0.60;0.60;;;18.60;50.40;;;;;;5118303;28;20170;-87
2023/06/03 11:10:43;;;;;;;0.93;0.55;;;18.80;51.80;;;;;;5092158;28;20208;-89
2023/06/03 11:13:11;;;;;;;0.82;0.50;;;18.90;53.10;;;;;;5079550;28;20866;-89
2023/06/03 11:16:00;;;;;;;0.90;0.50;;;19.10;48.70;;;;;;5081029;28;20190;-86
2023/06/03 11:18:27;;;;;;;0.50;0.50;;;19.10;48.90;;;;;;5098475;28;20250;-88
2023/06/03 11:20:53;;;;;;;1.48;0.95;;;19.10;49.90;;;;;;5114518;28;20178;-89
2023/06/03 11:23:45;;;;;;;0.43;0.43;;;18.90;51.60;;;;;;5081657;28;20182;-88
2023/06/03 11:26:33;;;;;;;0.93;0.68;;;19.00;51.10;;;;;;5115841;28;20206;-88
2023/06/03 11:29:00;;;;;;;0.88;0.70;;;19.00;48.90;;;;;;5114036;28;20176;-89
2023/06/03 11:31:27;;;;;;;1.00;0.68;;;19.10;49.80;;;;;;5127858;28;20173;-86
2023/06/03 11:34:18;;;;;;;0.57;0.50;;;19.10;49.90;;;;;;5127604;28;20186;-87
2023/06/03 11:36:54;;;;;;;2.78;0.63;;;19.20;48.40;;;;;;5118297;28;20178;-86
2023/06/03 11:39:21;;;;;;;1.50;0.80;;;19.10;50.70;;;;;;5084884;28;20218;-87
2023/06/03 11:42:10;;;;;;;1.08;0.90;;;19.10;47.60;;;;;;5074006;28;20238;-88
2023/06/03 11:44:38;;;;;;;1.00;0.80;;;18.80;46.90;;;;;;5074325;28;20270;-86
2023/06/03 11:47:05;;;;;;;1.42;0.70;;;18.80;48.00;;;;;;5083956;28;20254;-86
2023/06/03 11:49:34;;;;;;;0.60;0.50;;;18.80;48.80;;;;;;5115236;28;20179;-87
2023/06/03 11:52:00;;;;;;;0.52;0.43;;;18.70;51.50;;;;;;5077190;28;20246;-90
2023/06/03 11:54:26;;;;;;;0.85;0.80;;;18.70;46.80;;;;;;5091880;28;20194;-87
2023/06/03 11:56:54;;;;;;;2.47;1.13;;;18.60;47.40;;;;;;5072785;28;20175;-86
2023/06/03 11:59:32;;;;;;;3.30;1.30;;;18.60;49.40;;;;;;5072131;28;20229;-90
2023/06/03 12:02:01;;;;;;;0.70;0.70;;;18.90;53.50;;;;;;5074959;28;20576;-90
2023/06/03 12:04:27;;;;;;;1.15;0.60;;;18.90;48.80;;;;;;5073183;28;20186;-89
2023/06/03 12:06:53;;;;;;;1.17;0.80;;;19.00;50.20;;;;;;5073741;28;20209;-89
2023/06/03 12:09:20;;;;;;;0.90;0.68;;;19.20;49.40;;;;;;5107135;28;20187;-88
2023/06/03 12:11:46;;;;;;;1.90;1.33;;;19.30;48.20;;;;;;5074038;28;20194;-91
2023/06/03 12:14:33;;;;;;;1.90;1.08;;;19.00;53.50;;;;;;5109501;28;20258;-89
2023/06/03 12:17:15;;;;;;;1.90;1.45;;;19.10;50.80;;;;;;5073300;28;20643;-88
2023/06/03 12:19:51;;;;;;;3.15;1.90;;;18.90;47.40;;;;;;5089086;28;20205;-87
2023/06/03 12:22:24;;;;;;;1.00;0.90;;;18.50;47.10;;;;;;5100853;28;20217;-89
2023/06/03 12:24:50;;;;;;;3.55;1.20;;;18.40;49.40;;;;;;5082922;28;20265;-88
2023/06/03 12:27:25;;;;;;;6.10;2.55;;;18.50;51.00;;;;;;5086388;28;20186;-89
2023/06/03 12:30:00;;;;;;;1.33;0.85;;;18.40;48.60;;;;;;5083250;28;20564;-88
2023/06/03 12:32:31;;;;;;;2.65;1.17;;;18.50;49.40;;;;;;5066435;28;20207;-87
2023/06/03 12:35:09;;;;;;;10.07;5.85;;;18.60;51.90;;;;;;5067815;28;20190;-88
2023/06/03 12:37:37;;;;;;;6.35;3.20;;;18.50;47.30;;;;;;5105915;28;20690;-88
2023/06/03 12:40:03;;;;;;;1.60;1.10;;;18.40;47.10;;;;;;5105754;28;20279;-89
2023/06/03 12:42:42;;;;;;;7.22;2.53;;;18.00;52.80;;;;;;5102921;28;20174;-87
2023/06/03 12:45:09;;;;;;;2.42;1.17;;;18.10;47.80;;;;;;5101854;28;20264;-88
2023/06/03 12:47:46;;;;;;;0.95;0.75;;;18.30;49.20;;;;;;5101235;28;20545;-88
2023/06/03 12:50:13;;;;;;;2.80;1.05;;;18.70;49.00;;;;;;5097419;28;20177;-86
2023/06/03 12:52:39;;;;;;;2.53;1.00;;;18.80;47.20;;;;;;5107625;28;20178;-86
2023/06/03 12:55:07;;;;;;;2.50;0.70;;;18.90;47.20;;;;;;5108286;28;20651;-87
2023/06/03 12:57:34;;;;;;;7.65;1.48;;;18.80;47.70;;;;;;5110675;28;20189;-88
2023/06/03 13:00:08;;;;;;;1.27;0.98;;;18.90;51.10;;;;;;5107822;28;20265;-92
2023/06/03 13:02:39;;;;;;;1.80;1.08;;;19.00;48.00;;;;;;5090043;28;20166;-91